Time;durP1;ratioP1;P1;durP2;ratioP2;P2;SDS_P1;SDS_P2;PMS_P1;PMS_P2;Temp;Humidity;BMP_temperature;BMP_pressure;BME280_temperature;BME280_humidity;BME280_pressure;Samples;Min_cycle;Max_cycle;Signal;HPM_P1;HPM_P2
2023/06/14 00:01:47;;;;;;;;;;;;;;;16.61;100.00;94929.13;5053286;28;2873;-57
2023/06/14 00:04:13;;;;;;;;;;;;;;;16.74;100.00;94931.84;5053572;28;969;-57
2023/06/14 00:06:39;;;;;;;;;;;;;;;16.85;100.00;94920.47;5053841;28;1046;-57
2023/06/14 00:09:08;;;;;;;;;;;;;;;16.88;100.00;94916.53;5053700;28;1914;-57
2023/06/14 00:11:34;;;;;;;;;;;;;;;16.73;100.00;94919.38;5053677;28;969;-56
2023/06/14 00:14:00;;;;;;;;;;;;;;;16.56;100.00;94921.63;5053402;28;1064;-57
2023/06/14 00:16:26;;;;;;;;;;;;;;;16.58;100.00;94914.16;5053422;28;1472;-57
2023/06/14 00:18:52;;;;;;;;;;;;;;;16.42;100.00;94907.25;5053443;28;1223;-56
2023/06/14 00:21:19;;;;;;;;;;;;;;;16.42;100.00;94907.25;5053196;28;1124;-57
2023/06/14 00:23:45;;;;;;;;;;;;;;;16.51;100.00;94914.13;5035927;28;1001;-57
2023/06/14 00:26:11;;;;;;;;;;;;;;;16.54;100.00;94902.94;5053456;28;1004;-56
2023/06/14 00:28:37;;;;;;;;;;;;;;;16.52;100.00;94905.03;5053518;28;1005;-56
2023/06/14 00:31:03;;;;;;;;;;;;;;;16.36;100.00;94900.00;5053481;28;1969;-57
2023/06/14 00:33:30;;;;;;;;;;;;;;;16.31;100.00;94894.38;5053466;28;1033;-57
2023/06/14 00:35:56;;;;;;;;;;;;;;;16.37;100.00;94890.84;5053228;28;994;-57
2023/06/14 00:38:22;;;;;;;;;;;;;;;16.33;100.00;94886.91;5053052;28;1659;-57
2023/06/14 00:40:48;;;;;;;;;;;;;;;16.24;100.00;94886.25;5053133;28;1044;-57
2023/06/14 00:43:14;;;;;;;;;;;;;;;16.25;100.00;94879.00;5053306;28;973;-56
2023/06/14 00:45:40;;;;;;;;;;;;;;;16.26;100.00;94880.63;5053358;28;1032;-57
2023/06/14 00:48:07;;;;;;;;;;;;;;;16.22;100.00;94880.25;5053041;28;1121;-57
2023/06/14 00:50:33;;;;;;;;;;;;;;;16.08;100.00;94879.34;5052914;28;1906;-56
2023/06/14 00:53:01;;;;;;;;;;;;;;;15.99;100.00;94884.09;5053256;28;973;-57
2023/06/14 00:55:27;;;;;;;;;;;;;;;16.03;100.00;94871.06;5053153;28;1033;-56
2023/06/14 00:57:54;;;;;;;;;;;;;;;16.03;100.00;94872.88;5053064;28;1044;-57
2023/06/14 01:00:21;;;;;;;;;;;;;;;15.97;100.00;94869.13;5052950;28;1012;-56
2023/06/14 01:02:47;;;;;;;;;;;;;;;15.92;100.00;94874.31;5052980;28;1513;-57
2023/06/14 01:05:13;;;;;;;;;;;;;;;15.90;100.00;94882.59;5052832;28;1041;-57
2023/06/14 01:07:47;;;;;;;;;;;;;;;15.88;100.00;94879.28;5053250;28;1032;-57
2023/06/14 01:10:13;;;;;;;;;;;;;;;15.69;100.00;94877.25;5052980;28;1910;-57
2023/06/14 01:12:42;;;;;;;;;;;;;;;15.41;100.00;94876.28;5052836;28;1053;-57
2023/06/14 01:15:09;;;;;;;;;;;;;;;15.33;100.00;94879.16;5053083;28;1381;-57
2023/06/14 01:17:35;;;;;;;;;;;;;;;15.47;100.00;94880.06;5052781;28;1042;-57
2023/06/14 01:20:02;;;;;;;;;;;;;;;15.63;100.00;94878.88;5035113;28;1034;-57
2023/06/14 01:22:28;;;;;;;;;;;;;;;15.59;100.00;94877.63;5052892;28;961;-57
2023/06/14 01:24:55;;;;;;;;;;;;;;;15.59;100.00;94886.56;5052746;28;1121;-57
2023/06/14 01:27:28;;;;;;;;;;;;;;;15.58;100.00;94882.19;5052806;28;1044;-57
2023/06/14 01:29:56;;;;;;;;;;;;;;;15.52;100.00;94883.00;5052517;28;2000;-57
2023/06/14 01:32:26;;;;;;;;;;;;;;;15.70;100.00;94887.03;5052871;28;1041;-58
2023/06/14 01:34:52;;;;;;;;;;;;;;;15.81;100.00;94886.50;5052607;28;1053;-57
2023/06/14 01:37:19;;;;;;;;;;;;;;;15.78;100.00;94882.34;5052702;28;1738;-57
2023/06/14 01:39:45;;;;;;;;;;;;;;;15.89;100.00;94890.88;5052523;28;1085;-57
2023/06/14 01:42:12;;;;;;;;;;;;;;;15.96;100.00;94889.88;5052760;28;949;-57
2023/06/14 01:44:40;;;;;;;;;;;;;;;15.96;100.00;94895.28;5052460;28;1054;-57
2023/06/14 01:47:06;;;;;;;;;;;;;;;16.01;100.00;94902.75;5052752;28;974;-57
2023/06/14 01:49:35;;;;;;;;;;;;;;;16.06;100.00;94899.47;5052427;28;1997;-57
2023/06/14 01:52:01;;;;;;;;;;;;;;;16.09;100.00;94905.28;5052794;28;973;-57
2023/06/14 01:54:29;;;;;;;;;;;;;;;16.06;100.00;94908.38;5055770;28;1250;-57
2023/06/14 01:56:55;;;;;;;;;;;;;;;16.02;100.00;94907.13;5056123;28;1021;-57
2023/06/14 01:59:21;;;;;;;;;;;;;;;16.06;100.00;94910.25;5055775;28;994;-57
2023/06/14 02:01:47;;;;;;;;;;;;;;;16.19;100.00;94913.81;5055866;28;1117;-57
2023/06/14 02:04:13;;;;;;;;;;;;;;;16.32;100.00;94914.91;5055994;28;1025;-57
2023/06/14 02:06:39;;;;;;;;;;;;;;;16.47;100.00;94912.88;5056101;28;1032;-57
2023/06/14 02:09:05;;;;;;;;;;;;;;;16.57;100.00;94921.41;5055734;28;1995;-57
2023/06/14 02:11:31;;;;;;;;;;;;;;;16.49;100.00;94920.78;5055805;28;1018;-57
2023/06/14 02:13:59;;;;;;;;;;;;;;;16.53;100.00;94925.56;5055890;28;1025;-57
2023/06/14 02:16:28;;;;;;;;;;;;;;;16.68;100.00;94925.41;5055614;28;1013;-57
2023/06/14 02:18:54;;;;;;;;;;;;;;;16.69;100.00;94927.03;5055654;28;1061;-57
2023/06/14 02:21:20;;;;;;;;;;;;;;;16.65;100.00;94925.78;5055775;28;1016;-57
2023/06/14 02:23:46;;;;;;;;;;;;;;;16.72;100.00;94929.34;5055652;28;982;-57
2023/06/14 02:26:12;;;;;;;;;;;;;;;16.78;100.00;94925.81;5055722;28;1005;-58
2023/06/14 02:28:38;;;;;;;;;;;;;;;16.81;100.00;94923.75;5055596;28;1038;-57
2023/06/14 02:31:04;;;;;;;;;;;;;;;16.74;100.00;94929.97;5055633;28;1975;-57
2023/06/14 02:33:30;;;;;;;;;;;;;;;16.58;100.00;94930.38;5037625;28;1026;-57
2023/06/14 02:35:57;;;;;;;;;;;;;;;16.57;100.00;94923.28;5055553;28;958;-57
2023/06/14 02:38:23;;;;;;;;;;;;;;;16.64;100.00;94923.28;5054776;28;1781;-58
2023/06/14 02:40:49;;;;;;;;;;;;;;;16.69;100.00;94924.34;5037766;28;1013;-57
2023/06/14 02:43:17;;;;;;;;;;;;;;;16.56;100.00;94925.16;5055071;28;1053;-57
2023/06/14 02:45:43;;;;;;;;;;;;;;;16.49;100.00;94929.72;5055346;28;965;-57
2023/06/14 02:48:09;;;;;;;;;;;;;;;16.47;100.00;94921.00;5055372;28;1052;-57
2023/06/14 02:50:35;;;;;;;;;;;;;;;16.49;100.00;94920.78;5054976;28;1898;-58
2023/06/14 02:53:02;;;;;;;;;;;;;;;16.55;100.00;94923.50;5055104;28;978;-57
2023/06/14 02:55:28;;;;;;;;;;;;;;;16.56;100.00;94927.00;5055146;28;990;-57
2023/06/14 02:57:54;;;;;;;;;;;;;;;16.52;100.00;94928.47;5054851;28;1124;-57
2023/06/14 03:00:20;;;;;;;;;;;;;;;16.53;100.00;94930.13;5054740;28;1049;-57
2023/06/14 03:02:46;;;;;;;;;;;;;;;16.59;100.00;94932.84;5054737;28;1019;-57
2023/06/14 03:05:12;;;;;;;;;;;;;;;16.64;100.00;94937.63;5054726;28;954;-57
2023/06/14 03:07:40;;;;;;;;;;;;;;;16.63;100.00;94938.66;5054689;28;1013;-58
2023/06/14 03:10:10;;;;;;;;;;;;;;;16.65;100.00;94935.75;5054670;28;1989;-57
2023/06/14 03:12:36;;;;;;;;;;;;;;;16.63;100.00;94937.84;5054503;28;1005;-57
2023/06/14 03:15:02;;;;;;;;;;;;;;;16.44;100.00;94940.28;5054834;28;989;-57
2023/06/14 03:17:32;;;;;;;;;;;;;;;16.38;100.00;94938.38;5054709;28;1018;-57
2023/06/14 03:19:58;;;;;;;;;;;;;;;16.40;100.00;94930.91;5054768;28;982;-58
2023/06/14 03:22:25;;;;;;;;;;;;;;;16.42;100.00;94934.25;5054447;28;977;-58
2023/06/14 03:24:52;;;;;;;;;;;;;;;16.23;100.00;94937.72;5054666;28;1036;-59
2023/06/14 03:27:18;;;;;;;;;;;;;;;16.16;100.00;94940.38;5053438;28;2392;-58
2023/06/14 03:29:44;;;;;;;;;;;;;;;16.25;100.00;94949.94;5053522;28;2827;-58
2023/06/14 03:32:10;;;;;;;;;;;;;;;16.27;100.00;94953.28;5054133;28;1478;-59
2023/06/14 03:34:38;;;;;;;;;;;;;;;16.29;100.00;94948.50;5054129;28;1117;-58
2023/06/14 03:37:04;;;;;;;;;;;;;;;16.38;100.00;94954.56;5054312;28;1425;-58
2023/06/14 03:39:31;;;;;;;;;;;;;;;16.44;100.00;94956.47;5033911;28;1155;-58
2023/06/14 03:41:57;;;;;;;;;;;;;;;16.48;100.00;94957.72;5033968;28;1101;-58
2023/06/14 03:44:23;;;;;;;;;;;;;;;16.59;100.00;94948.22;5034212;28;1035;-58
2023/06/14 03:46:49;;;;;;;;;;;;;;;16.63;100.00;94962.97;5034021;28;1061;-58
2023/06/14 03:49:16;;;;;;;;;;;;;;;16.58;100.00;94949.25;5033985;28;1910;-59
2023/06/14 03:51:43;;;;;;;;;;;;;;;16.57;100.00;94958.38;5034127;28;1035;-59
2023/06/14 03:54:09;;;;;;;;;;;;;;;16.51;100.00;94951.91;5033883;28;1028;-59
2023/06/14 03:56:35;;;;;;;;;;;;;;;16.54;100.00;94953.38;5033538;28;1665;-58
2023/06/14 03:59:02;;;;;;;;;;;;;;;16.52;100.00;94950.03;5034028;28;1196;-57
2023/06/14 04:01:29;;;;;;;;;;;;;;;16.58;100.00;94955.47;5033647;28;1046;-57
2023/06/14 04:03:56;;;;;;;;;;;;;;;16.70;100.00;94957.59;5033894;28;984;-58
2023/06/14 04:06:24;;;;;;;;;;;;;;;16.63;100.00;94954.03;5033701;28;1081;-58
2023/06/14 04:08:51;;;;;;;;;;;;;;;16.65;100.00;94949.25;5032506;28;1988;-58
2023/06/14 04:11:17;;;;;;;;;;;;;;;16.89;100.00;94954.13;5033754;28;990;-57
2023/06/14 04:13:44;;;;;;;;;;;;;;;17.13;100.00;94950.00;5033680;28;1030;-58
2023/06/14 04:16:10;;;;;;;;;;;;;;;17.33;100.00;94954.59;5015775;28;974;-58
2023/06/14 04:18:36;;;;;;;;;;;;;;;17.44;100.00;94956.66;5033640;28;1033;-58
2023/06/14 04:21:02;;;;;;;;;;;;;;;17.59;100.00;94950.22;5033478;28;1042;-58
2023/06/14 04:23:28;;;;;;;;;;;;;;;17.62;100.00;94955.19;5033406;28;1025;-58
2023/06/14 04:25:54;;;;;;;;;;;;;;;17.61;100.00;94957.06;5033622;28;1029;-58
2023/06/14 04:28:25;;;;;;;;;;;;;;;17.67;100.00;94950.81;5033500;28;1033;-58
2023/06/14 04:30:53;;;;;;;;;;;;;;;17.54;100.00;94956.22;5033675;28;1914;-58
2023/06/14 04:33:19;;;;;;;;;;;;;;;17.44;100.00;94950.44;5039408;28;2356;-59
2023/06/14 04:35:47;;;;;;;;;;;;;;;17.49;100.00;94958.72;5052640;28;2875;-59
2023/06/14 04:38:13;;;;;;;;;;;;;;;17.50;100.00;94955.81;5052877;28;1413;-59
2023/06/14 04:40:42;;;;;;;;;;;;;;;17.52;100.00;94961.84;5053088;28;1048;-58
2023/06/14 04:43:11;;;;;;;;;;;;;;;17.60;100.00;94965.38;5053214;28;917;-59
2023/06/14 04:45:39;;;;;;;;;;;;;;;17.65;100.00;94961.00;5053355;28;1044;-58
2023/06/14 04:48:06;;;;;;;;;;;;;;;17.75;100.00;94964.09;5053361;28;1021;-58
2023/06/14 04:50:32;;;;;;;;;;;;;;;17.72;100.00;94964.53;5052811;28;1993;-58
2023/06/14 04:52:59;;;;;;;;;;;;;;;17.84;100.00;94977.44;5053017;28;1024;-58
2023/06/14 04:55:26;;;;;;;;;;;;;;;17.80;100.00;94978.88;5053257;28;957;-58
2023/06/14 04:57:53;;;;;;;;;;;;;;;17.88;100.00;94978.69;5053295;28;977;-57
2023/06/14 05:00:19;;;;;;;;;;;;;;;17.99;100.00;94986.16;5052256;28;3017;-58
2023/06/14 05:02:46;;;;;;;;;;;;;;;17.93;100.00;94976.19;5052412;28;2875;-58
2023/06/14 05:05:13;;;;;;;;;;;;;;;17.91;100.00;94989.91;5052864;28;1037;-58
2023/06/14 05:07:39;;;;;;;;;;;;;;;17.93;100.00;94992.41;5052840;28;1045;-57
2023/06/14 05:10:05;;;;;;;;;;;;;;;17.84;100.00;94999.91;5052994;28;1996;-55
2023/06/14 05:12:32;;;;;;;;;;;;;;;17.93;100.00;94995.13;5034884;28;1108;-57
2023/06/14 05:15:01;;;;;;;;;;;;;;;18.00;100.00;94997.81;5052927;28;1234;-57
2023/06/14 05:17:27;;;;;;;;;;;;;;;18.03;100.00;94998.22;5052800;28;1053;-57
2023/06/14 05:19:55;;;;;;;;;;;;;;;18.23;100.00;95008.16;5051804;28;2959;-57
2023/06/14 05:22:22;;;;;;;;;;;;;;;18.22;100.00;95009.22;5052669;28;1037;-57
2023/06/14 05:24:48;;;;;;;;;;;;;;;18.27;100.00;95009.41;5053062;28;1028;-57
2023/06/14 05:27:14;;;;;;;;;;;;;;;18.43;100.00;95022.47;5052880;28;1020;-57
2023/06/14 05:29:40;;;;;;;;;;;;;;;18.58;100.00;95015.97;5056361;28;1997;-57
2023/06/14 05:32:06;;;;;;;;;;;;;;;18.71;100.00;95021.34;5056819;28;1017;-57
2023/06/14 05:34:32;;;;;;;;;;;;;;;18.76;100.00;95020.69;5056312;28;1046;-57
2023/06/14 05:36:58;;;;;;;;;;;;;;;18.67;100.00;95020.94;5056298;28;1405;-57
2023/06/14 05:39:24;;;;;;;;;;;;;;;18.59;100.00;95018.47;5056039;28;1221;-57
2023/06/14 05:41:50;;;;;;;;;;;;;;;18.55;100.00;95011.81;5056466;28;1058;-57
2023/06/14 05:44:16;;;;;;;;;;;;;;;18.61;100.00;95005.56;5056397;28;1005;-57
2023/06/14 05:46:43;;;;;;;;;;;;;;;18.62;100.00;95011.78;5038559;28;1042;-57
2023/06/14 05:49:09;;;;;;;;;;;;;;;18.51;100.00;95016.81;5056079;28;1910;-58
2023/06/14 05:51:35;;;;;;;;;;;;;;;18.86;100.00;95023.81;5055968;28;1649;-58
2023/06/14 05:54:01;;;;;;;;;;;;;;;19.40;99.98;95027.84;5056343;28;1024;-58
2023/06/14 05:56:27;;;;;;;;;;;;;;;20.01;98.38;95022.81;5056232;28;1033;-58
2023/06/14 05:58:53;;;;;;;;;;;;;;;20.23;97.14;95024.06;5056010;28;1070;-57
2023/06/14 06:01:20;;;;;;;;;;;;;;;20.18;97.18;95026.59;5055129;28;2202;-57
2023/06/14 06:03:46;;;;;;;;;;;;;;;20.38;93.79;95025.59;5054420;28;2925;-57
2023/06/14 06:06:12;;;;;;;;;;;;;;;20.87;94.05;95029.22;5055420;28;2969;-57
2023/06/14 06:08:38;;;;;;;;;;;;;;;21.21;91.31;95035.06;5054373;28;2846;-57
2023/06/14 06:11:04;;;;;;;;;;;;;;;21.51;89.37;95034.22;5055600;28;1983;-57
2023/06/14 06:13:30;;;;;;;;;;;;;;;21.63;86.47;95030.47;5055597;28;1034;-57
2023/06/14 06:15:56;;;;;;;;;;;;;;;21.54;87.66;95033.78;5055979;28;1030;-57
2023/06/14 06:18:22;;;;;;;;;;;;;;;21.26;89.82;95030.56;5055671;28;1016;-58
2023/06/14 06:20:48;;;;;;;;;;;;;;;21.25;87.05;95038.97;5055614;28;1018;-57
2023/06/14 06:23:14;;;;;;;;;;;;;;;21.16;86.62;95024.03;5037688;28;1034;-57
2023/06/14 06:25:41;;;;;;;;;;;;;;;21.06;87.89;95022.69;5055647;28;1370;-58
2023/06/14 06:28:07;;;;;;;;;;;;;;;21.28;86.38;95029.50;5055632;28;1024;-57
2023/06/14 06:30:33;;;;;;;;;;;;;;;21.75;85.55;95029.69;5055494;28;1906;-57
2023/06/14 06:32:59;;;;;;;;;;;;;;;21.97;83.64;95025.34;5055632;28;965;-58
2023/06/14 06:35:25;;;;;;;;;;;;;;;21.56;86.57;95028.94;5055157;28;1104;-57
2023/06/14 06:37:52;;;;;;;;;;;;;;;21.81;86.04;95028.72;5055239;28;1421;-57
2023/06/14 06:40:18;;;;;;;;;;;;;;;22.25;87.91;95026.53;5053268;28;2564;-57
2023/06/14 06:42:44;;;;;;;;;;;;;;;21.99;86.82;95025.09;5054668;28;2209;-58
2023/06/14 06:45:11;;;;;;;;;;;;;;;21.80;84.00;95027.91;5027895;28;2890;-57
2023/06/14 06:47:37;;;;;;;;;;;;;;;21.84;85.05;95023.66;5055111;28;1046;-58
2023/06/14 06:50:03;;;;;;;;;;;;;;;22.21;85.33;95026.19;5054856;28;1891;-58
2023/06/14 06:52:29;;;;;;;;;;;;;;;22.47;84.60;95034.13;5054928;28;1156;-58
2023/06/14 06:54:55;;;;;;;;;;;;;;;22.42;84.20;95030.22;5055247;28;1224;-58
2023/06/14 06:57:25;;;;;;;;;;;;;;;22.28;82.56;95034.25;5055073;28;973;-58
2023/06/14 06:59:51;;;;;;;;;;;;;;;22.01;84.36;95026.50;5054897;28;929;-58
2023/06/14 07:02:18;;;;;;;;;;;;;;;22.05;85.81;95023.34;5037343;28;1006;-58
2023/06/14 07:04:44;;;;;;;;;;;;;;;22.63;79.13;95030.66;5054730;28;1045;-58
2023/06/14 07:07:10;;;;;;;;;;;;;;;22.84;79.61;95026.50;5037042;28;1124;-58
2023/06/14 07:09:36;;;;;;;;;;;;;;;22.86;83.36;95031.66;5037222;28;1906;-58
2023/06/14 07:12:02;;;;;;;;;;;;;;;22.89;83.02;95033.94;5054915;28;1010;-58
2023/06/14 07:14:30;;;;;;;;;;;;;;;23.22;82.42;95019.63;5037028;28;1048;-58
2023/06/14 07:16:56;;;;;;;;;;;;;;;23.45;81.22;95024.16;5054471;28;1197;-58
2023/06/14 07:19:22;;;;;;;;;;;;;;;23.56;77.06;95019.69;5036716;28;1038;-59
2023/06/14 07:21:48;;;;;;;;;;;;;;;23.89;79.66;95021.66;5053897;28;2472;-58
2023/06/14 07:24:14;;;;;;;;;;;;;;;23.95;76.06;95025.31;5053855;28;2891;-58
2023/06/14 07:26:40;;;;;;;;;;;;;;;23.78;74.65;95033.44;5054432;28;1038;-58
2023/06/14 07:29:06;;;;;;;;;;;;;;;23.82;80.45;95029.19;5054278;28;1907;-58
2023/06/14 07:31:32;;;;;;;;;;;;;;;23.69;75.64;95027.56;5054389;28;1017;-58
2023/06/14 07:33:58;;;;;;;;;;;;;;;23.67;74.34;95031.63;5054403;28;1049;-58
2023/06/14 07:36:25;;;;;;;;;;;;;;;23.61;74.02;95033.44;5054159;28;1367;-58
2023/06/14 07:38:51;;;;;;;;;;;;;;;23.82;76.37;95036.56;5036160;28;1481;-59
2023/06/14 07:41:17;;;;;;;;;;;;;;;23.88;75.71;95041.84;5054126;28;1049;-59
2023/06/14 07:43:43;;;;;;;;;;;;;;;23.93;77.04;95038.38;5054333;28;1021;-59
2023/06/14 07:46:09;;;;;;;;;;;;;;;24.20;78.54;95037.72;5054048;28;1108;-59
2023/06/14 07:48:35;;;;;;;;;;;;;;;24.42;77.11;95037.78;5053840;28;966;-59
2023/06/14 07:51:01;;;;;;;;;;;;;;;24.39;77.58;95030.91;5053328;28;1996;-59
2023/06/14 07:53:28;;;;;;;;;;;;;;;24.33;75.42;95038.19;5053870;28;1029;-58
2023/06/14 07:55:54;;;;;;;;;;;;;;;24.40;75.78;95034.44;5053746;28;1221;-58
2023/06/14 07:58:20;;;;;;;;;;;;;;;24.64;77.55;95035.94;5054016;28;974;-58
2023/06/14 08:00:47;;;;;;;;;;;;;;;24.73;77.16;95039.88;5053760;28;1058;-57
2023/06/14 08:03:14;;;;;;;;;;;;;;;24.78;74.73;95030.94;5053645;28;1026;-58
2023/06/14 08:05:40;;;;;;;;;;;;;;;25.03;73.58;95032.34;5053932;28;1024;-58
2023/06/14 08:08:06;;;;;;;;;;;;;;;25.07;72.72;95028.81;5053741;28;1014;-57
2023/06/14 08:10:32;;;;;;;;;;;;;;;24.97;75.74;95036.91;5053629;28;1914;-58
2023/06/14 08:12:58;;;;;;;;;;;;;;;24.89;75.06;95030.00;5053446;28;1025;-57
2023/06/14 08:15:24;;;;;;;;;;;;;;;25.04;75.30;95034.81;5053396;28;998;-57
2023/06/14 08:17:51;;;;;;;;;;;;;;;25.11;74.65;95048.28;5035600;28;1116;-57
2023/06/14 08:20:17;;;;;;;;;;;;;;;24.72;73.61;95042.88;5053212;28;1091;-57
2023/06/14 08:22:43;;;;;;;;;;;;;;;24.32;75.02;95033.81;5053240;28;1042;-57
2023/06/14 08:25:11;;;;;;;;;;;;;;;24.23;78.67;95039.97;5053368;28;974;-57
2023/06/14 08:27:37;;;;;;;;;;;;;;;24.53;76.89;95036.88;5053197;28;1042;-57
2023/06/14 08:30:03;;;;;;;;;;;;;;;24.87;75.22;95032.16;5053169;28;1938;-57
2023/06/14 08:32:29;;;;;;;;;;;;;;;25.09;73.44;95034.06;5053112;28;1108;-57
2023/06/14 08:34:55;;;;;;;;;;;;;;;25.05;74.52;95039.19;5053143;28;1046;-57
2023/06/14 08:37:21;;;;;;;;;;;;;;;24.89;73.24;95031.88;5048719;28;2915;-57
2023/06/14 08:39:47;;;;;;;;;;;;;;;25.10;68.97;95036.53;5053073;28;1217;-57
2023/06/14 08:42:14;;;;;;;;;;;;;;;24.84;68.68;95029.91;5053147;28;961;-57
2023/06/14 08:44:40;;;;;;;;;;;;;;;24.88;69.47;95032.97;5068401;28;1097;-58
2023/06/14 08:47:07;;;;;;;;;;;;;;;25.12;69.19;95025.34;5052989;28;1900;-57
2023/06/14 08:49:36;;;;;;;;;;;;;;;25.22;66.10;95024.63;5053173;28;1995;-57
2023/06/14 08:52:02;;;;;;;;;;;;;;;25.43;69.88;95012.03;5053203;28;1021;-57
2023/06/14 08:54:32;;;;;;;;;;;;;;;25.46;70.04;95015.09;5053038;28;1026;-57
2023/06/14 08:56:59;;;;;;;;;;;;;;;25.45;70.22;95013.41;5053592;28;1767;-58
2023/06/14 08:59:28;;;;;;;;;;;;;;;25.51;69.87;95019.75;5051482;28;2490;-58
2023/06/14 09:01:54;;;;;;;;;;;;;;;25.63;70.32;95016.88;5053952;28;1210;-58
2023/06/14 09:04:21;;;;;;;;;;;;;;;25.45;66.60;95010.69;5056863;28;1065;-58
2023/06/14 09:06:52;;;;;;;;;;;;;;;25.61;69.25;95013.56;5056982;28;1038;-58
2023/06/14 09:09:20;;;;;;;;;;;;;;;25.95;68.31;95014.16;5056077;28;2926;-58
2023/06/14 09:11:46;;;;;;;;;;;;;;;25.90;67.97;95005.91;5056802;28;1683;-58
2023/06/14 09:14:12;;;;;;;;;;;;;;;25.79;68.29;94998.69;5056734;28;1113;-58
2023/06/14 09:16:38;;;;;;;;;;;;;;;25.95;66.40;95003.22;5056990;28;1111;-57
2023/06/14 09:19:04;;;;;;;;;;;;;;;26.23;69.43;95003.97;5056727;28;1045;-57
2023/06/14 09:21:33;;;;;;;;;;;;;;;26.13;66.80;94999.25;5056195;28;2975;-58
2023/06/14 09:24:01;;;;;;;;;;;;;;;25.94;64.47;94998.03;5071606;28;2932;-58
2023/06/14 09:26:28;;;;;;;;;;;;;;;25.80;67.55;95001.16;5056629;28;1021;-58
2023/06/14 09:28:55;;;;;;;;;;;;;;;25.92;69.29;94997.47;5055351;28;2984;-59
2023/06/14 09:31:22;;;;;;;;;;;;;;;26.26;67.95;94993.34;5056347;28;1961;-60
2023/06/14 09:33:48;;;;;;;;;;;;;;;25.83;65.59;94995.16;5056737;28;977;-59
2023/06/14 09:36:18;;;;;;;;;;;;;;;25.34;67.41;94992.50;5056438;28;1669;-59
2023/06/14 09:38:56;;;;;;;;;;;;;;;25.04;69.74;94988.34;5056112;28;1134;-59
2023/06/14 09:41:32;;;;;;;;;;;;;;;25.02;66.51;94989.66;5056653;28;1040;-60
2023/06/14 09:44:00;;;;;;;;;;;;;;;25.10;68.38;94992.78;5056141;28;1046;-60
2023/06/14 09:46:27;;;;;;;;;;;;;;;25.38;69.16;94982.69;5056265;28;994;-59
2023/06/14 09:48:53;;;;;;;;;;;;;;;25.61;70.15;94983.44;5056279;28;989;-59
2023/06/14 09:51:22;;;;;;;;;;;;;;;25.37;71.82;94975.56;5056267;28;1882;-59
2023/06/14 09:53:49;;;;;;;;;;;;;;;25.46;72.00;94979.50;5056169;28;1038;-59
2023/06/14 09:56:29;;;;;;;;;;;;;;;25.55;74.48;94974.38;5056019;28;1014;-59
2023/06/14 09:58:56;;;;;;;;;;;;;;;25.41;69.58;94976.69;5055950;28;1532;-59
2023/06/14 10:01:27;;;;;;;;;;;;;;;25.27;72.82;94975.44;5056102;28;1005;-59
2023/06/14 10:03:55;;;;;;;;;;;;;;;25.17;72.81;94970.66;5055193;28;2407;-59
2023/06/14 10:06:24;;;;;;;;;;;;;;;25.12;74.47;94974.19;5055148;28;2950;-60
2023/06/14 10:08:52;;;;;;;;;;;;;;;25.33;73.66;94961.59;5056071;28;1052;-59
2023/06/14 10:11:18;;;;;;;;;;;;;;;25.80;68.46;94957.34;5054836;28;2466;-59
2023/06/14 10:13:45;;;;;;;;;;;;;;;26.29;69.70;94954.44;5036777;28;2980;-59
2023/06/14 10:16:20;;;;;;;;;;;;;;;26.04;70.51;94952.34;5055568;28;1045;-59
2023/06/14 10:18:54;;;;;;;;;;;;;;;25.78;72.32;94942.25;5055933;28;933;-59
2023/06/14 10:21:40;;;;;;;;;;;;;;;25.55;66.44;94943.44;5055749;28;974;-58
2023/06/14 10:24:07;;;;;;;;;;;;;;;25.26;71.75;94941.00;5055766;28;1036;-58
2023/06/14 10:26:33;;;;;;;;;;;;;;;25.14;70.83;94950.13;5055468;28;1065;-58
2023/06/14 10:29:01;;;;;;;;;;;;;;;25.07;69.70;94946.78;5055573;28;1308;-58
2023/06/14 10:31:43;;;;;;;;;;;;;;;24.86;66.35;94942.16;5055328;28;1902;-58
2023/06/14 10:34:10;;;;;;;;;;;;;;;24.85;68.00;94948.72;5055633;28;1014;-58
2023/06/14 10:36:40;;;;;;;;;;;;;;;24.81;69.55;94953.84;5055195;28;1378;-57
2023/06/14 10:39:08;;;;;;;;;;;;;;;24.75;70.31;94952.16;5051855;28;1137;-57
2023/06/14 10:41:35;;;;;;;;;;;;;;;24.68;71.55;94957.81;5055148;28;1054;-58
2023/06/14 10:44:13;;;;;;;;;;;;;;;24.64;72.75;94958.56;5055226;28;985;-58
2023/06/14 10:46:40;;;;;;;;;;;;;;;24.50;73.87;94969.03;5055377;28;978;-57
2023/06/14 10:49:06;;;;;;;;;;;;;;;24.40;75.15;94963.41;5053681;28;2727;-58
2023/06/14 10:51:46;;;;;;;;;;;;;;;24.25;79.32;94966.78;5055207;28;1041;-58
2023/06/14 10:54:15;;;;;;;;;;;;;;;24.15;80.49;94972.94;5054255;28;2847;-58
2023/06/14 10:56:48;;;;;;;;;;;;;;;24.03;83.05;94973.00;5054147;28;2855;-58
2023/06/14 10:59:15;;;;;;;;;;;;;;;23.81;82.37;94981.13;5055037;28;1002;-58
2023/06/14 11:01:57;;;;;;;;;;;;;;;23.56;82.94;94968.69;5054985;28;1173;-58
2023/06/14 11:04:27;;;;;;;;;;;;;;;23.31;83.39;94970.97;5053111;28;2592;-58
2023/06/14 11:07:04;;;;;;;;;;;;;;;22.89;82.08;94971.22;5055105;28;1099;-58
2023/06/14 11:09:44;;;;;;;;;;;;;;;22.58;80.54;94959.72;5054507;28;2001;-58
2023/06/14 11:12:13;;;;;;;;;;;;;;;22.45;80.87;94960.00;5037160;28;963;-57
2023/06/14 11:14:40;;;;;;;;;;;;;;;22.40;77.12;94953.38;5054530;28;1049;-58
2023/06/14 11:17:06;;;;;;;;;;;;;;;22.23;78.57;94941.50;5036746;28;1050;-58
2023/06/14 11:19:32;;;;;;;;;;;;;;;22.14;81.70;94937.50;5035365;28;2590;-57
2023/06/14 11:21:58;;;;;;;;;;;;;;;22.11;80.42;94940.72;5054411;28;1116;-58
2023/06/14 11:24:25;;;;;;;;;;;;;;;22.06;83.14;94933.25;5053522;28;2326;-57
2023/06/14 11:26:51;;;;;;;;;;;;;;;22.17;81.57;94920.69;5053642;28;2907;-57
2023/06/14 11:29:20;;;;;;;;;;;;;;;22.41;78.88;94914.16;5054394;28;2011;-57
2023/06/14 11:31:46;;;;;;;;;;;;;;;22.62;78.44;94909.13;5054189;28;1117;-57
2023/06/14 11:34:13;;;;;;;;;;;;;;;22.68;77.44;94916.31;5053315;28;2816;-58
2023/06/14 11:36:39;;;;;;;;;;;;;;;23.00;78.21;94902.22;5035649;28;2869;-57
2023/06/14 11:39:09;;;;;;;;;;;;;;;23.65;77.97;94910.97;5053820;28;1208;-58
2023/06/14 11:41:39;;;;;;;;;;;;;;;24.18;76.02;94909.59;5054100;28;1029;-58
2023/06/14 11:44:06;;;;;;;;;;;;;;;24.27;70.67;94910.00;5054267;28;998;-58
2023/06/14 11:46:32;;;;;;;;;;;;;;;24.46;68.68;94907.78;5053936;28;1041;-58
2023/06/14 11:48:58;;;;;;;;;;;;;;;24.53;71.55;94906.53;5053814;28;989;-58
2023/06/14 11:51:24;;;;;;;;;;;;;;;24.54;69.75;94896.41;5053724;28;2007;-58
2023/06/14 11:53:51;;;;;;;;;;;;;;;24.34;66.00;94907.91;5054041;28;1005;-58
2023/06/14 11:56:17;;;;;;;;;;;;;;;24.03;65.75;94895.72;5053894;28;1048;-58
2023/06/14 11:58:43;;;;;;;;;;;;;;;23.83;62.48;94897.09;5053917;28;1028;-58
2023/06/14 12:01:09;;;;;;;;;;;;;;;23.77;63.70;94903.50;5054027;28;1074;-58
2023/06/14 12:03:37;;;;;;;;;;;;;;;23.71;64.82;94899.03;5053655;28;1128;-58
2023/06/14 12:06:04;;;;;;;;;;;;;;;23.76;68.68;94897.22;5053817;28;1018;-58
2023/06/14 12:08:40;;;;;;;;;;;;;;;23.81;67.71;94888.31;5053440;28;1038;-58
2023/06/14 12:11:13;;;;;;;;;;;;;;;23.89;68.88;94893.34;5053679;28;1984;-58
2023/06/14 12:13:40;;;;;;;;;;;;;;;24.00;65.94;94894.34;5052180;28;2778;-58
2023/06/14 12:16:07;;;;;;;;;;;;;;;24.07;65.82;94891.41;5053746;28;1005;-58
2023/06/14 12:18:37;;;;;;;;;;;;;;;23.89;66.16;94887.06;5035911;28;1053;-57
2023/06/14 12:21:09;;;;;;;;;;;;;;;23.78;60.83;94886.06;5053643;28;1074;-58
2023/06/14 12:23:39;;;;;;;;;;;;;;;23.85;63.21;94883.19;5053322;28;1041;-58
2023/06/14 12:26:05;;;;;;;;;;;;;;;23.87;62.62;94881.84;5053658;28;1029;-57
2023/06/14 12:28:31;;;;;;;;;;;;;;;23.89;65.14;94881.59;5053146;28;926;-57
2023/06/14 12:30:58;;;;;;;;;;;;;;;24.05;65.47;94877.19;5053410;28;1914;-57
2023/06/14 12:33:24;;;;;;;;;;;;;;;23.99;68.60;94870.81;5053375;28;952;-58
2023/06/14 12:35:54;;;;;;;;;;;;;;;24.05;67.34;94869.81;5053317;28;981;-57
2023/06/14 12:38:21;;;;;;;;;;;;;;;24.44;66.84;94858.03;5052572;28;1648;-58
2023/06/14 12:40:47;;;;;;;;;;;;;;;24.78;67.28;94860.63;5053250;28;958;-58
2023/06/14 12:43:13;;;;;;;;;;;;;;;24.95;66.25;94861.34;5052867;28;1132;-57
2023/06/14 12:45:39;;;;;;;;;;;;;;;24.98;70.82;94851.78;5052996;28;1097;-58
2023/06/14 12:48:05;;;;;;;;;;;;;;;25.03;69.74;94851.84;5053309;28;1041;-57
2023/06/14 12:50:31;;;;;;;;;;;;;;;24.87;67.66;94856.31;5053157;28;2020;-57
2023/06/14 12:52:57;;;;;;;;;;;;;;;24.89;68.73;94845.94;5052921;28;1826;-58